sensor_id;sensor_type;location;lat;lon;timestamp;P1;durP1;ratioP1;P2;durP2;ratioP2
2305;SDS011;1161;51.922;8.896;2024-02-26T00:01:01;6.67;;;5.77;;
2305;SDS011;1161;51.922;8.896;2024-02-26T00:03:28;8.38;;;5.60;;
2305;SDS011;1161;51.922;8.896;2024-02-26T00:05:56;6.93;;;6.23;;
2305;SDS011;1161;51.922;8.896;2024-02-26T00:08:23;6.03;;;5.53;;
2305;SDS011;1161;51.922;8.896;2024-02-26T00:10:50;7.07;;;6.40;;
2305;SDS011;1161;51.922;8.896;2024-02-26T00:13:17;9.00;;;5.72;;
2305;SDS011;1161;51.922;8.896;2024-02-26T00:15:46;6.10;;;5.60;;
2305;SDS011;1161;51.922;8.896;2024-02-26T00:18:13;12.45;;;7.35;;
2305;SDS011;1161;51.922;8.896;2024-02-26T00:20:40;10.38;;;6.13;;
2305;SDS011;1161;51.922;8.896;2024-02-26T00:23:09;7.07;;;5.72;;
2305;SDS011;1161;51.922;8.896;2024-02-26T00:25:37;7.65;;;6.72;;
2305;SDS011;1161;51.922;8.896;2024-02-26T00:28:04;10.00;;;6.60;;
2305;SDS011;1161;51.922;8.896;2024-02-26T00:30:31;7.05;;;6.35;;
2305;SDS011;1161;51.922;8.896;2024-02-26T00:32:58;13.40;;;6.05;;
2305;SDS011;1161;51.922;8.896;2024-02-26T00:35:25;9.20;;;6.40;;
2305;SDS011;1161;51.922;8.896;2024-02-26T00:37:51;8.20;;;6.75;;
2305;SDS011;1161;51.922;8.896;2024-02-26T00:40:20;10.18;;;6.68;;
2305;SDS011;1161;51.922;8.896;2024-02-26T00:42:47;29.60;;;8.47;;
2305;SDS011;1161;51.922;8.896;2024-02-26T00:45:13;14.07;;;8.55;;
2305;SDS011;1161;51.922;8.896;2024-02-26T00:47:41;15.17;;;9.23;;
2305;SDS011;1161;51.922;8.896;2024-02-26T00:50:10;13.95;;;8.32;;
2305;SDS011;1161;51.922;8.896;2024-02-26T00:52:37;10.27;;;9.02;;
2305;SDS011;1161;51.922;8.896;2024-02-26T00:55:04;15.07;;;7.13;;
2305;SDS011;1161;51.922;8.896;2024-02-26T00:57:33;8.27;;;6.88;;
2305;SDS011;1161;51.922;8.896;2024-02-26T00:59:59;9.93;;;7.53;;
2305;SDS011;1161;51.922;8.896;2024-02-26T01:02:27;8.70;;;7.20;;
2305;SDS011;1161;51.922;8.896;2024-02-26T01:04:54;7.85;;;6.22;;
2305;SDS011;1161;51.922;8.896;2024-02-26T01:07:21;8.13;;;5.90;;
2305;SDS011;1161;51.922;8.896;2024-02-26T01:09:48;12.80;;;6.93;;
2305;SDS011;1161;51.922;8.896;2024-02-26T01:12:14;7.55;;;6.78;;
2305;SDS011;1161;51.922;8.896;2024-02-26T01:14:42;7.75;;;6.30;;
2305;SDS011;1161;51.922;8.896;2024-02-26T01:17:09;10.98;;;7.57;;
2305;SDS011;1161;51.922;8.896;2024-02-26T01:19:36;10.88;;;7.10;;
2305;SDS011;1161;51.922;8.896;2024-02-26T01:22:03;8.75;;;6.95;;
2305;SDS011;1161;51.922;8.896;2024-02-26T01:24:30;8.70;;;6.67;;
2305;SDS011;1161;51.922;8.896;2024-02-26T01:26:57;9.75;;;7.95;;
2305;SDS011;1161;51.922;8.896;2024-02-26T01:29:24;19.65;;;9.38;;
2305;SDS011;1161;51.922;8.896;2024-02-26T01:31:52;12.07;;;9.20;;
2305;SDS011;1161;51.922;8.896;2024-02-26T01:34:19;11.20;;;8.90;;
2305;SDS011;1161;51.922;8.896;2024-02-26T01:36:45;14.63;;;8.98;;
2305;SDS011;1161;51.922;8.896;2024-02-26T01:39:12;23.93;;;9.23;;
2305;SDS011;1161;51.922;8.896;2024-02-26T01:41:39;16.63;;;9.52;;
2305;SDS011;1161;51.922;8.896;2024-02-26T01:44:06;15.18;;;8.48;;
2305;SDS011;1161;51.922;8.896;2024-02-26T01:46:34;22.95;;;10.65;;
2305;SDS011;1161;51.922;8.896;2024-02-26T01:49:02;16.20;;;9.40;;
2305;SDS011;1161;51.922;8.896;2024-02-26T01:51:29;18.90;;;8.70;;
2305;SDS011;1161;51.922;8.896;2024-02-26T01:53:57;8.88;;;7.50;;
2305;SDS011;1161;51.922;8.896;2024-02-26T01:56:24;12.57;;;9.33;;
2305;SDS011;1161;51.922;8.896;2024-02-26T01:58:55;9.60;;;7.43;;
2305;SDS011;1161;51.922;8.896;2024-02-26T02:01:24;9.80;;;6.70;;
2305;SDS011;1161;51.922;8.896;2024-02-26T02:03:51;7.10;;;5.32;;
2305;SDS011;1161;51.922;8.896;2024-02-26T02:06:20;7.07;;;5.43;;
2305;SDS011;1161;51.922;8.896;2024-02-26T02:08:47;8.73;;;7.05;;
2305;SDS011;1161;51.922;8.896;2024-02-26T02:11:14;6.55;;;5.82;;
2305;SDS011;1161;51.922;8.896;2024-02-26T02:13:41;9.70;;;7.40;;
2305;SDS011;1161;51.922;8.896;2024-02-26T02:16:08;7.80;;;7.00;;
2305;SDS011;1161;51.922;8.896;2024-02-26T02:18:34;11.07;;;8.65;;
2305;SDS011;1161;51.922;8.896;2024-02-26T02:21:03;8.38;;;7.20;;
2305;SDS011;1161;51.922;8.896;2024-02-26T02:23:30;8.43;;;6.33;;
2305;SDS011;1161;51.922;8.896;2024-02-26T02:25:57;8.18;;;7.38;;
2305;SDS011;1161;51.922;8.896;2024-02-26T02:28:24;8.38;;;6.00;;
2305;SDS011;1161;51.922;8.896;2024-02-26T02:30:52;7.78;;;5.90;;
2305;SDS011;1161;51.922;8.896;2024-02-26T02:33:18;9.50;;;7.00;;
2305;SDS011;1161;51.922;8.896;2024-02-26T02:35:45;8.82;;;7.10;;
2305;SDS011;1161;51.922;8.896;2024-02-26T02:38:13;8.57;;;6.90;;
2305;SDS011;1161;51.922;8.896;2024-02-26T02:40:40;7.47;;;6.00;;
2305;SDS011;1161;51.922;8.896;2024-02-26T02:43:07;10.00;;;6.80;;
2305;SDS011;1161;51.922;8.896;2024-02-26T02:45:34;11.77;;;7.43;;
2305;SDS011;1161;51.922;8.896;2024-02-26T02:48:01;8.85;;;5.82;;
2305;SDS011;1161;51.922;8.896;2024-02-26T02:50:27;11.18;;;7.22;;
2305;SDS011;1161;51.922;8.896;2024-02-26T02:52:56;7.35;;;6.13;;
2305;SDS011;1161;51.922;8.896;2024-02-26T02:55:24;7.32;;;6.45;;
2305;SDS011;1161;51.922;8.896;2024-02-26T02:57:51;7.87;;;7.00;;
2305;SDS011;1161;51.922;8.896;2024-02-26T03:00:18;8.30;;;5.00;;
2305;SDS011;1161;51.922;8.896;2024-02-26T03:02:48;7.95;;;6.25;;
2305;SDS011;1161;51.922;8.896;2024-02-26T03:05:15;8.20;;;7.45;;
2305;SDS011;1161;51.922;8.896;2024-02-26T03:07:42;7.80;;;6.40;;
2305;SDS011;1161;51.922;8.896;2024-02-26T03:10:10;12.35;;;6.53;;
2305;SDS011;1161;51.922;8.896;2024-02-26T03:12:38;6.63;;;5.65;;
2305;SDS011;1161;51.922;8.896;2024-02-26T03:15:05;6.47;;;5.45;;
2305;SDS011;1161;51.922;8.896;2024-02-26T03:17:32;4.83;;;4.40;;
2305;SDS011;1161;51.922;8.896;2024-02-26T03:19:59;5.30;;;4.37;;
2305;SDS011;1161;51.922;8.896;2024-02-26T03:22:26;4.40;;;4.10;;
2305;SDS011;1161;51.922;8.896;2024-02-26T03:24:53;4.40;;;4.00;;
2305;SDS011;1161;51.922;8.896;2024-02-26T03:27:19;4.97;;;4.43;;
2305;SDS011;1161;51.922;8.896;2024-02-26T03:29:47;10.93;;;5.43;;
2305;SDS011;1161;51.922;8.896;2024-02-26T03:32:14;5.20;;;4.40;;
2305;SDS011;1161;51.922;8.896;2024-02-26T03:34:41;5.87;;;5.27;;
2305;SDS011;1161;51.922;8.896;2024-02-26T03:37:08;9.02;;;4.90;;
2305;SDS011;1161;51.922;8.896;2024-02-26T03:39:36;6.00;;;4.30;;
2305;SDS011;1161;51.922;8.896;2024-02-26T03:42:03;7.17;;;5.20;;
2305;SDS011;1161;51.922;8.896;2024-02-26T03:44:29;9.50;;;6.60;;
2305;SDS011;1161;51.922;8.896;2024-02-26T03:46:57;6.30;;;5.40;;
2305;SDS011;1161;51.922;8.896;2024-02-26T03:49:23;5.80;;;5.10;;
2305;SDS011;1161;51.922;8.896;2024-02-26T03:51:50;11.10;;;5.13;;
2305;SDS011;1161;51.922;8.896;2024-02-26T03:54:17;5.70;;;5.13;;
2305;SDS011;1161;51.922;8.896;2024-02-26T03:56:44;7.03;;;5.30;;
2305;SDS011;1161;51.922;8.896;2024-02-26T03:59:10;5.47;;;4.67;;
2305;SDS011;1161;51.922;8.896;2024-02-26T04:01:37;4.30;;;3.90;;
2305;SDS011;1161;51.922;8.896;2024-02-26T04:04:05;4.80;;;4.40;;
2305;SDS011;1161;51.922;8.896;2024-02-26T04:06:32;5.83;;;3.67;;
2305;SDS011;1161;51.922;8.896;2024-02-26T04:09:00;5.03;;;4.53;;
2305;SDS011;1161;51.922;8.896;2024-02-26T04:11:29;3.60;;;3.40;;
2305;SDS011;1161;51.922;8.896;2024-02-26T04:13:55;3.60;;;3.30;;
2305;SDS011;1161;51.922;8.896;2024-02-26T04:16:22;3.58;;;2.95;;
2305;SDS011;1161;51.922;8.896;2024-02-26T04:18:49;4.87;;;3.20;;
2305;SDS011;1161;51.922;8.896;2024-02-26T04:21:19;5.20;;;3.13;;
2305;SDS011;1161;51.922;8.896;2024-02-26T04:23:47;4.60;;;2.60;;
2305;SDS011;1161;51.922;8.896;2024-02-26T04:26:15;3.80;;;3.50;;
2305;SDS011;1161;51.922;8.896;2024-02-26T04:28:42;3.90;;;3.60;;
2305;SDS011;1161;51.922;8.896;2024-02-26T04:31:10;3.50;;;3.27;;
2305;SDS011;1161;51.922;8.896;2024-02-26T04:33:38;2.83;;;2.67;;
2305;SDS011;1161;51.922;8.896;2024-02-26T04:36:12;3.70;;;3.40;;
2305;SDS011;1161;51.922;8.896;2024-02-26T04:38:42;5.50;;;2.97;;
2305;SDS011;1161;51.922;8.896;2024-02-26T04:41:09;4.57;;;3.70;;
2305;SDS011;1161;51.922;8.896;2024-02-26T04:43:38;2.60;;;2.03;;
2305;SDS011;1161;51.922;8.896;2024-02-26T04:46:07;3.30;;;2.73;;
2305;SDS011;1161;51.922;8.896;2024-02-26T04:48:40;3.23;;;3.03;;
2305;SDS011;1161;51.922;8.896;2024-02-26T04:51:10;2.63;;;2.30;;
2305;SDS011;1161;51.922;8.896;2024-02-26T04:53:40;3.10;;;2.90;;
2305;SDS011;1161;51.922;8.896;2024-02-26T04:56:10;3.23;;;2.90;;
2305;SDS011;1161;51.922;8.896;2024-02-26T04:58:41;3.00;;;2.90;;
2305;SDS011;1161;51.922;8.896;2024-02-26T05:01:07;5.87;;;2.67;;
2305;SDS011;1161;51.922;8.896;2024-02-26T05:03:36;2.20;;;2.20;;
2305;SDS011;1161;51.922;8.896;2024-02-26T05:06:03;2.57;;;2.37;;
2305;SDS011;1161;51.922;8.896;2024-02-26T05:08:30;3.00;;;2.67;;
2305;SDS011;1161;51.922;8.896;2024-02-26T05:10:59;2.30;;;2.20;;
2305;SDS011;1161;51.922;8.896;2024-02-26T05:13:29;3.10;;;2.90;;
2305;SDS011;1161;51.922;8.896;2024-02-26T05:15:56;3.43;;;3.20;;
2305;SDS011;1161;51.922;8.896;2024-02-26T05:18:23;2.87;;;2.67;;
2305;SDS011;1161;51.922;8.896;2024-02-26T05:20:50;2.30;;;2.20;;
2305;SDS011;1161;51.922;8.896;2024-02-26T05:23:16;4.47;;;2.87;;
2305;SDS011;1161;51.922;8.896;2024-02-26T05:25:43;5.10;;;3.47;;
2305;SDS011;1161;51.922;8.896;2024-02-26T05:28:12;5.80;;;3.47;;
2305;SDS011;1161;51.922;8.896;2024-02-26T05:30:42;3.23;;;2.90;;
2305;SDS011;1161;51.922;8.896;2024-02-26T05:33:09;3.20;;;3.03;;
2305;SDS011;1161;51.922;8.896;2024-02-26T05:35:36;2.87;;;2.10;;
2305;SDS011;1161;51.922;8.896;2024-02-26T05:38:03;2.60;;;2.50;;
2305;SDS011;1161;51.922;8.896;2024-02-26T05:40:30;5.53;;;2.60;;
2305;SDS011;1161;51.922;8.896;2024-02-26T05:42:57;10.13;;;3.77;;
2305;SDS011;1161;51.922;8.896;2024-02-26T05:45:24;2.47;;;2.27;;
2305;SDS011;1161;51.922;8.896;2024-02-26T05:47:52;4.07;;;2.50;;
2305;SDS011;1161;51.922;8.896;2024-02-26T05:50:21;6.17;;;2.37;;
2305;SDS011;1161;51.922;8.896;2024-02-26T05:52:48;2.93;;;2.57;;
2305;SDS011;1161;51.922;8.896;2024-02-26T05:55:14;3.10;;;2.30;;
2305;SDS011;1161;51.922;8.896;2024-02-26T05:57:42;2.30;;;2.20;;
2305;SDS011;1161;51.922;8.896;2024-02-26T06:00:09;1.90;;;1.90;;
2305;SDS011;1161;51.922;8.896;2024-02-26T06:02:38;2.87;;;2.67;;
2305;SDS011;1161;51.922;8.896;2024-02-26T06:05:06;3.70;;;2.77;;
2305;SDS011;1161;51.922;8.896;2024-02-26T06:07:34;2.77;;;2.33;;
2305;SDS011;1161;51.922;8.896;2024-02-26T06:10:01;4.00;;;2.10;;
2305;SDS011;1161;51.922;8.896;2024-02-26T06:12:30;4.67;;;2.83;;
2305;SDS011;1161;51.922;8.896;2024-02-26T06:14:57;3.37;;;2.93;;
2305;SDS011;1161;51.922;8.896;2024-02-26T06:17:26;3.80;;;3.50;;
2305;SDS011;1161;51.922;8.896;2024-02-26T06:19:53;3.43;;;3.10;;
2305;SDS011;1161;51.922;8.896;2024-02-26T06:22:21;1.63;;;1.53;;
2305;SDS011;1161;51.922;8.896;2024-02-26T06:24:48;3.23;;;2.93;;
2305;SDS011;1161;51.922;8.896;2024-02-26T06:27:15;2.30;;;2.20;;
2305;SDS011;1161;51.922;8.896;2024-02-26T06:29:42;2.27;;;1.90;;
2305;SDS011;1161;51.922;8.896;2024-02-26T06:32:08;1.90;;;1.60;;
2305;SDS011;1161;51.922;8.896;2024-02-26T06:34:35;7.37;;;2.17;;
2305;SDS011;1161;51.922;8.896;2024-02-26T06:37:04;2.33;;;2.00;;
2305;SDS011;1161;51.922;8.896;2024-02-26T06:39:32;2.20;;;2.10;;
2305;SDS011;1161;51.922;8.896;2024-02-26T06:41:58;3.33;;;2.40;;
2305;SDS011;1161;51.922;8.896;2024-02-26T06:44:27;2.40;;;2.30;;
2305;SDS011;1161;51.922;8.896;2024-02-26T06:46:57;2.90;;;2.07;;
2305;SDS011;1161;51.922;8.896;2024-02-26T06:49:24;2.30;;;2.20;;
2305;SDS011;1161;51.922;8.896;2024-02-26T06:51:51;6.57;;;2.80;;
2305;SDS011;1161;51.922;8.896;2024-02-26T06:54:17;1.93;;;1.93;;
2305;SDS011;1161;51.922;8.896;2024-02-26T06:56:46;15.60;;;4.10;;
2305;SDS011;1161;51.922;8.896;2024-02-26T06:59:13;2.90;;;2.60;;
2305;SDS011;1161;51.922;8.896;2024-02-26T07:01:39;4.20;;;2.40;;
2305;SDS011;1161;51.922;8.896;2024-02-26T07:04:06;10.73;;;3.53;;
2305;SDS011;1161;51.922;8.896;2024-02-26T07:06:33;3.20;;;2.90;;
2305;SDS011;1161;51.922;8.896;2024-02-26T07:09:00;3.80;;;3.10;;
2305;SDS011;1161;51.922;8.896;2024-02-26T07:11:27;2.90;;;2.60;;
2305;SDS011;1161;51.922;8.896;2024-02-26T07:13:55;3.93;;;3.20;;
2305;SDS011;1161;51.922;8.896;2024-02-26T07:16:22;3.33;;;2.70;;
2305;SDS011;1161;51.922;8.896;2024-02-26T07:18:48;8.13;;;3.30;;
2305;SDS011;1161;51.922;8.896;2024-02-26T07:21:15;5.60;;;2.40;;
2305;SDS011;1161;51.922;8.896;2024-02-26T07:23:42;3.23;;;2.50;;
2305;SDS011;1161;51.922;8.896;2024-02-26T07:26:08;5.30;;;2.70;;
2305;SDS011;1161;51.922;8.896;2024-02-26T07:28:37;3.90;;;3.00;;
2305;SDS011;1161;51.922;8.896;2024-02-26T07:31:07;3.20;;;3.00;;
2305;SDS011;1161;51.922;8.896;2024-02-26T07:33:33;3.53;;;3.20;;
2305;SDS011;1161;51.922;8.896;2024-02-26T07:36:00;4.23;;;3.87;;
2305;SDS011;1161;51.922;8.896;2024-02-26T07:38:27;9.80;;;3.23;;
2305;SDS011;1161;51.922;8.896;2024-02-26T07:40:54;5.53;;;3.30;;
2305;SDS011;1161;51.922;8.896;2024-02-26T07:43:22;5.10;;;2.60;;
2305;SDS011;1161;51.922;8.896;2024-02-26T07:45:48;6.93;;;3.37;;
2305;SDS011;1161;51.922;8.896;2024-02-26T07:48:16;4.17;;;3.77;;
2305;SDS011;1161;51.922;8.896;2024-02-26T07:50:43;3.53;;;3.33;;
2305;SDS011;1161;51.922;8.896;2024-02-26T07:53:10;5.20;;;3.33;;
2305;SDS011;1161;51.922;8.896;2024-02-26T07:55:37;4.83;;;4.20;;
2305;SDS011;1161;51.922;8.896;2024-02-26T07:58:04;5.70;;;4.03;;
2305;SDS011;1161;51.922;8.896;2024-02-26T08:00:31;6.37;;;4.03;;
2305;SDS011;1161;51.922;8.896;2024-02-26T08:02:58;9.40;;;5.60;;
2305;SDS011;1161;51.922;8.896;2024-02-26T08:05:26;3.90;;;3.60;;
2305;SDS011;1161;51.922;8.896;2024-02-26T08:07:53;3.43;;;3.10;;
2305;SDS011;1161;51.922;8.896;2024-02-26T08:10:20;5.70;;;4.63;;
2305;SDS011;1161;51.922;8.896;2024-02-26T08:12:47;10.10;;;6.00;;
2305;SDS011;1161;51.922;8.896;2024-02-26T08:15:13;15.17;;;7.13;;
2305;SDS011;1161;51.922;8.896;2024-02-26T08:17:40;8.00;;;5.73;;
2305;SDS011;1161;51.922;8.896;2024-02-26T08:20:07;13.73;;;5.10;;
2305;SDS011;1161;51.922;8.896;2024-02-26T08:22:36;4.67;;;4.27;;
2305;SDS011;1161;51.922;8.896;2024-02-26T08:25:04;4.53;;;4.00;;
2305;SDS011;1161;51.922;8.896;2024-02-26T08:27:34;5.80;;;4.13;;
2305;SDS011;1161;51.922;8.896;2024-02-26T08:30:01;4.47;;;4.13;;
2305;SDS011;1161;51.922;8.896;2024-02-26T08:32:28;6.57;;;4.70;;
2305;SDS011;1161;51.922;8.896;2024-02-26T08:34:54;8.50;;;4.37;;
2305;SDS011;1161;51.922;8.896;2024-02-26T08:37:21;12.83;;;7.83;;
2305;SDS011;1161;51.922;8.896;2024-02-26T08:39:49;12.63;;;6.47;;
2305;SDS011;1161;51.922;8.896;2024-02-26T08:42:16;9.87;;;4.70;;
2305;SDS011;1161;51.922;8.896;2024-02-26T08:44:42;3.73;;;3.23;;
2305;SDS011;1161;51.922;8.896;2024-02-26T08:47:09;7.60;;;5.10;;
2305;SDS011;1161;51.922;8.896;2024-02-26T08:49:36;15.23;;;4.90;;
2305;SDS011;1161;51.922;8.896;2024-02-26T08:52:04;6.97;;;4.90;;
2305;SDS011;1161;51.922;8.896;2024-02-26T08:54:32;8.53;;;4.57;;
2305;SDS011;1161;51.922;8.896;2024-02-26T08:57:00;6.27;;;4.57;;
2305;SDS011;1161;51.922;8.896;2024-02-26T08:59:26;11.70;;;4.50;;
2305;SDS011;1161;51.922;8.896;2024-02-26T09:01:54;6.27;;;5.17;;
2305;SDS011;1161;51.922;8.896;2024-02-26T09:04:21;11.17;;;5.57;;
2305;SDS011;1161;51.922;8.896;2024-02-26T09:06:47;5.43;;;5.03;;
2305;SDS011;1161;51.922;8.896;2024-02-26T09:09:15;5.20;;;4.50;;
2305;SDS011;1161;51.922;8.896;2024-02-26T09:11:41;6.97;;;5.30;;
2305;SDS011;1161;51.922;8.896;2024-02-26T09:14:09;5.63;;;4.70;;
2305;SDS011;1161;51.922;8.896;2024-02-26T09:16:37;7.40;;;4.77;;
2305;SDS011;1161;51.922;8.896;2024-02-26T09:19:04;6.27;;;5.07;;
2305;SDS011;1161;51.922;8.896;2024-02-26T09:21:30;16.43;;;7.27;;
2305;SDS011;1161;51.922;8.896;2024-02-26T09:23:57;10.80;;;5.90;;
2305;SDS011;1161;51.922;8.896;2024-02-26T09:26:23;10.80;;;6.77;;
2305;SDS011;1161;51.922;8.896;2024-02-26T09:28:50;9.10;;;5.43;;
2305;SDS011;1161;51.922;8.896;2024-02-26T09:31:19;8.20;;;4.60;;
2305;SDS011;1161;51.922;8.896;2024-02-26T09:33:45;6.90;;;4.87;;
2305;SDS011;1161;51.922;8.896;2024-02-26T09:36:12;10.13;;;4.67;;
2305;SDS011;1161;51.922;8.896;2024-02-26T09:38:39;5.40;;;4.90;;
2305;SDS011;1161;51.922;8.896;2024-02-26T09:41:06;6.50;;;4.83;;
2305;SDS011;1161;51.922;8.896;2024-02-26T09:43:34;12.00;;;6.80;;
2305;SDS011;1161;51.922;8.896;2024-02-26T09:46:01;12.37;;;7.17;;
2305;SDS011;1161;51.922;8.896;2024-02-26T09:48:29;9.13;;;6.80;;
2305;SDS011;1161;51.922;8.896;2024-02-26T09:50:56;8.13;;;5.60;;
2305;SDS011;1161;51.922;8.896;2024-02-26T09:53:23;11.93;;;7.60;;
2305;SDS011;1161;51.922;8.896;2024-02-26T09:55:50;6.37;;;5.77;;
2305;SDS011;1161;51.922;8.896;2024-02-26T09:58:16;12.23;;;6.83;;
2305;SDS011;1161;51.922;8.896;2024-02-26T10:00:46;19.80;;;6.30;;
2305;SDS011;1161;51.922;8.896;2024-02-26T10:03:13;11.13;;;6.80;;
2305;SDS011;1161;51.922;8.896;2024-02-26T10:05:42;8.23;;;6.33;;
2305;SDS011;1161;51.922;8.896;2024-02-26T10:08:09;10.43;;;5.93;;
2305;SDS011;1161;51.922;8.896;2024-02-26T10:10:37;9.83;;;6.73;;
2305;SDS011;1161;51.922;8.896;2024-02-26T10:13:05;13.33;;;6.30;;
2305;SDS011;1161;51.922;8.896;2024-02-26T10:15:35;8.50;;;5.90;;
2305;SDS011;1161;51.922;8.896;2024-02-26T10:18:03;6.60;;;5.90;;
2305;SDS011;1161;51.922;8.896;2024-02-26T10:20:30;9.43;;;6.40;;
2305;SDS011;1161;51.922;8.896;2024-02-26T10:23:00;8.80;;;5.70;;
2305;SDS011;1161;51.922;8.896;2024-02-26T10:25:28;8.50;;;5.93;;
2305;SDS011;1161;51.922;8.896;2024-02-26T10:27:58;8.30;;;5.73;;
2305;SDS011;1161;51.922;8.896;2024-02-26T10:30:31;8.50;;;7.13;;
2305;SDS011;1161;51.922;8.896;2024-02-26T10:32:57;14.33;;;6.37;;
2305;SDS011;1161;51.922;8.896;2024-02-26T10:35:25;13.33;;;6.90;;
2305;SDS011;1161;51.922;8.896;2024-02-26T10:37:54;11.03;;;6.23;;
2305;SDS011;1161;51.922;8.896;2024-02-26T10:40:22;8.97;;;6.00;;
2305;SDS011;1161;51.922;8.896;2024-02-26T10:42:49;7.47;;;5.83;;
2305;SDS011;1161;51.922;8.896;2024-02-26T10:45:16;11.33;;;6.97;;
2305;SDS011;1161;51.922;8.896;2024-02-26T10:47:44;11.13;;;6.53;;
2305;SDS011;1161;51.922;8.896;2024-02-26T10:50:11;10.53;;;6.73;;
2305;SDS011;1161;51.922;8.896;2024-02-26T10:52:39;14.77;;;7.30;;
2305;SDS011;1161;51.922;8.896;2024-02-26T10:55:08;16.90;;;8.67;;
2305;SDS011;1161;51.922;8.896;2024-02-26T10:57:44;12.23;;;7.20;;
2305;SDS011;1161;51.922;8.896;2024-02-26T11:00:13;12.73;;;9.00;;
2305;SDS011;1161;51.922;8.896;2024-02-26T11:02:42;8.27;;;5.47;;
2305;SDS011;1161;51.922;8.896;2024-02-26T11:05:11;14.67;;;7.27;;
2305;SDS011;1161;51.922;8.896;2024-02-26T11:07:38;11.40;;;7.43;;
2305;SDS011;1161;51.922;8.896;2024-02-26T11:10:08;14.90;;;8.00;;
2305;SDS011;1161;51.922;8.896;2024-02-26T11:12:39;11.10;;;7.47;;
2305;SDS011;1161;51.922;8.896;2024-02-26T11:15:07;12.73;;;7.73;;
2305;SDS011;1161;51.922;8.896;2024-02-26T11:17:36;15.00;;;8.10;;
2305;SDS011;1161;51.922;8.896;2024-02-26T11:20:05;11.73;;;7.80;;
2305;SDS011;1161;51.922;8.896;2024-02-26T11:22:34;15.40;;;7.90;;
2305;SDS011;1161;51.922;8.896;2024-02-26T11:25:01;12.97;;;8.20;;
2305;SDS011;1161;51.922;8.896;2024-02-26T11:27:29;16.80;;;9.53;;
2305;SDS011;1161;51.922;8.896;2024-02-26T11:29:58;10.83;;;7.93;;
2305;SDS011;1161;51.922;8.896;2024-02-26T11:32:28;11.20;;;8.23;;
2305;SDS011;1161;51.922;8.896;2024-02-26T11:34:56;16.83;;;8.83;;
2305;SDS011;1161;51.922;8.896;2024-02-26T11:37:23;20.77;;;10.73;;
2305;SDS011;1161;51.922;8.896;2024-02-26T11:39:51;11.63;;;7.50;;
2305;SDS011;1161;51.922;8.896;2024-02-26T11:42:22;14.17;;;9.40;;
2305;SDS011;1161;51.922;8.896;2024-02-26T11:44:50;16.07;;;9.30;;
2305;SDS011;1161;51.922;8.896;2024-02-26T11:47:18;11.70;;;7.60;;
2305;SDS011;1161;51.922;8.896;2024-02-26T11:49:46;19.30;;;10.20;;
2305;SDS011;1161;51.922;8.896;2024-02-26T11:52:13;13.73;;;9.67;;
2305;SDS011;1161;51.922;8.896;2024-02-26T11:54:44;15.97;;;8.77;;
2305;SDS011;1161;51.922;8.896;2024-02-26T11:57:22;14.10;;;7.83;;
2305;SDS011;1161;51.922;8.896;2024-02-26T11:59:49;23.80;;;9.13;;
2305;SDS011;1161;51.922;8.896;2024-02-26T12:05:12;11.57;;;7.47;;
2305;SDS011;1161;51.922;8.896;2024-02-26T12:07:44;16.60;;;8.40;;
2305;SDS011;1161;51.922;8.896;2024-02-26T12:10:14;14.53;;;7.93;;
2305;SDS011;1161;51.922;8.896;2024-02-26T12:12:42;17.10;;;10.00;;
2305;SDS011;1161;51.922;8.896;2024-02-26T12:15:08;15.53;;;8.90;;
2305;SDS011;1161;51.922;8.896;2024-02-26T12:17:36;18.10;;;9.00;;
2305;SDS011;1161;51.922;8.896;2024-02-26T12:20:10;13.60;;;8.00;;
2305;SDS011;1161;51.922;8.896;2024-02-26T12:22:39;15.20;;;8.27;;
2305;SDS011;1161;51.922;8.896;2024-02-26T12:25:06;12.67;;;7.40;;
2305;SDS011;1161;51.922;8.896;2024-02-26T12:27:35;14.43;;;9.10;;
2305;SDS011;1161;51.922;8.896;2024-02-26T12:30:02;12.67;;;7.83;;
2305;SDS011;1161;51.922;8.896;2024-02-26T12:32:29;10.57;;;6.40;;
2305;SDS011;1161;51.922;8.896;2024-02-26T12:34:56;8.97;;;6.10;;
2305;SDS011;1161;51.922;8.896;2024-02-26T12:37:23;11.20;;;7.00;;
2305;SDS011;1161;51.922;8.896;2024-02-26T12:39:51;11.50;;;6.57;;
2305;SDS011;1161;51.922;8.896;2024-02-26T12:42:18;7.20;;;5.97;;
2305;SDS011;1161;51.922;8.896;2024-02-26T12:44:45;7.20;;;6.27;;
2305;SDS011;1161;51.922;8.896;2024-02-26T12:47:12;10.57;;;7.77;;
2305;SDS011;1161;51.922;8.896;2024-02-26T12:49:42;9.87;;;6.07;;
2305;SDS011;1161;51.922;8.896;2024-02-26T12:52:09;10.07;;;6.23;;
2305;SDS011;1161;51.922;8.896;2024-02-26T12:54:37;9.97;;;6.10;;
2305;SDS011;1161;51.922;8.896;2024-02-26T12:57:05;11.27;;;6.30;;
2305;SDS011;1161;51.922;8.896;2024-02-26T12:59:33;6.03;;;5.53;;
2305;SDS011;1161;51.922;8.896;2024-02-26T13:02:00;9.97;;;6.60;;
2305;SDS011;1161;51.922;8.896;2024-02-26T13:04:28;7.40;;;5.60;;
2305;SDS011;1161;51.922;8.896;2024-02-26T13:06:56;5.03;;;4.53;;
2305;SDS011;1161;51.922;8.896;2024-02-26T13:09:26;10.50;;;5.80;;
2305;SDS011;1161;51.922;8.896;2024-02-26T13:11:53;9.43;;;5.40;;
2305;SDS011;1161;51.922;8.896;2024-02-26T13:14:21;7.10;;;5.53;;
2305;SDS011;1161;51.922;8.896;2024-02-26T13:16:54;7.47;;;5.67;;
2305;SDS011;1161;51.922;8.896;2024-02-26T13:19:21;11.80;;;5.67;;
2305;SDS011;1161;51.922;8.896;2024-02-26T13:21:48;17.20;;;6.50;;
2305;SDS011;1161;51.922;8.896;2024-02-26T13:24:15;9.20;;;5.37;;
2305;SDS011;1161;51.922;8.896;2024-02-26T13:26:43;6.17;;;5.47;;
2305;SDS011;1161;51.922;8.896;2024-02-26T13:29:16;6.70;;;5.37;;
2305;SDS011;1161;51.922;8.896;2024-02-26T13:31:44;6.57;;;4.80;;
2305;SDS011;1161;51.922;8.896;2024-02-26T13:34:11;7.10;;;4.80;;
2305;SDS011;1161;51.922;8.896;2024-02-26T13:36:49;6.73;;;4.70;;
2305;SDS011;1161;51.922;8.896;2024-02-26T13:39:21;6.87;;;5.90;;
2305;SDS011;1161;51.922;8.896;2024-02-26T13:41:48;4.63;;;4.23;;
2305;SDS011;1161;51.922;8.896;2024-02-26T13:44:14;6.70;;;5.67;;
2305;SDS011;1161;51.922;8.896;2024-02-26T13:46:41;11.67;;;4.90;;
2305;SDS011;1161;51.922;8.896;2024-02-26T13:49:09;7.23;;;5.00;;
2305;SDS011;1161;51.922;8.896;2024-02-26T13:51:35;6.87;;;5.00;;
2305;SDS011;1161;51.922;8.896;2024-02-26T13:54:03;10.50;;;6.00;;
2305;SDS011;1161;51.922;8.896;2024-02-26T13:56:29;9.90;;;6.37;;
2305;SDS011;1161;51.922;8.896;2024-02-26T13:58:56;12.13;;;6.03;;
2305;SDS011;1161;51.922;8.896;2024-02-26T14:01:24;9.00;;;6.23;;
2305;SDS011;1161;51.922;8.896;2024-02-26T14:03:51;6.07;;;4.50;;
2305;SDS011;1161;51.922;8.896;2024-02-26T14:06:21;7.33;;;5.90;;
2305;SDS011;1161;51.922;8.896;2024-02-26T14:08:49;7.77;;;6.10;;
2305;SDS011;1161;51.922;8.896;2024-02-26T14:11:16;7.00;;;5.20;;
2305;SDS011;1161;51.922;8.896;2024-02-26T14:13:42;7.37;;;4.63;;
2305;SDS011;1161;51.922;8.896;2024-02-26T14:16:12;10.40;;;5.90;;
2305;SDS011;1161;51.922;8.896;2024-02-26T14:18:40;12.07;;;5.47;;
2305;SDS011;1161;51.922;8.896;2024-02-26T14:21:09;9.70;;;6.37;;
2305;SDS011;1161;51.922;8.896;2024-02-26T14:23:37;8.80;;;5.83;;
2305;SDS011;1161;51.922;8.896;2024-02-26T14:26:05;13.90;;;7.30;;
2305;SDS011;1161;51.922;8.896;2024-02-26T14:28:32;22.23;;;10.37;;
2305;SDS011;1161;51.922;8.896;2024-02-26T14:30:59;10.60;;;7.30;;
2305;SDS011;1161;51.922;8.896;2024-02-26T14:33:26;13.43;;;7.83;;
2305;SDS011;1161;51.922;8.896;2024-02-26T14:35:53;7.43;;;5.50;;
2305;SDS011;1161;51.922;8.896;2024-02-26T14:38:19;11.90;;;5.50;;
2305;SDS011;1161;51.922;8.896;2024-02-26T14:40:47;9.07;;;5.70;;
2305;SDS011;1161;51.922;8.896;2024-02-26T14:43:14;11.37;;;6.27;;
2305;SDS011;1161;51.922;8.896;2024-02-26T14:45:41;11.00;;;6.23;;
2305;SDS011;1161;51.922;8.896;2024-02-26T14:48:08;10.10;;;6.27;;
2305;SDS011;1161;51.922;8.896;2024-02-26T14:50:35;7.50;;;6.70;;
2305;SDS011;1161;51.922;8.896;2024-02-26T14:53:02;6.13;;;5.50;;
2305;SDS011;1161;51.922;8.896;2024-02-26T14:55:29;32.53;;;8.13;;
2305;SDS011;1161;51.922;8.896;2024-02-26T14:57:57;19.10;;;8.30;;
2305;SDS011;1161;51.922;8.896;2024-02-26T15:00:24;9.40;;;6.10;;
2305;SDS011;1161;51.922;8.896;2024-02-26T15:02:51;14.00;;;6.17;;
2305;SDS011;1161;51.922;8.896;2024-02-26T15:05:20;9.20;;;7.50;;
2305;SDS011;1161;51.922;8.896;2024-02-26T15:07:46;13.40;;;7.33;;
2305;SDS011;1161;51.922;8.896;2024-02-26T15:10:14;7.83;;;5.97;;
2305;SDS011;1161;51.922;8.896;2024-02-26T15:12:41;9.23;;;6.80;;
2305;SDS011;1161;51.922;8.896;2024-02-26T15:15:09;9.33;;;6.80;;